sensor_id;sensor_type;location;lat;lon;timestamp;pressure;altitude;pressure_sealevel;temperature;humidity
31483;BME280;18103;52.246;8.052;2022-09-09T00:01:47;99458.84;;;16.48;82.04
31483;BME280;18103;52.246;8.052;2022-09-09T00:12:15;99458.22;;;16.46;82.47
31483;BME280;18103;52.246;8.052;2022-09-09T00:14:51;99453.75;;;16.40;82.82
31483;BME280;18103;52.246;8.052;2022-09-09T00:20:00;99449.56;;;16.44;82.74
31483;BME280;18103;52.246;8.052;2022-09-09T00:22:29;99453.31;;;16.43;82.87
31483;BME280;18103;52.246;8.052;2022-09-09T00:25:14;99451.13;;;16.51;82.26
31483;BME280;18103;52.246;8.052;2022-09-09T00:27:50;99447.13;;;16.42;82.67
31483;BME280;18103;52.246;8.052;2022-09-09T00:30:24;99433.41;;;16.44;82.39
31483;BME280;18103;52.246;8.052;2022-09-09T00:32:53;99440.81;;;16.48;82.63
31483;BME280;18103;52.246;8.052;2022-09-09T00:35:26;99439.28;;;16.52;82.43
31483;BME280;18103;52.246;8.052;2022-09-09T00:37:56;99438.34;;;16.47;82.79
31483;BME280;18103;52.246;8.052;2022-09-09T00:40:32;99443.59;;;16.42;83.23
31483;BME280;18103;52.246;8.052;2022-09-09T00:43:16;99441.13;;;16.40;83.32
31483;BME280;18103;52.246;8.052;2022-09-09T00:46:27;99441.34;;;16.39;83.25
31483;BME280;18103;52.246;8.052;2022-09-09T00:49:19;99436.41;;;16.36;83.12
31483;BME280;18103;52.246;8.052;2022-09-09T00:57:32;99434.50;;;16.25;84.26
31483;BME280;18103;52.246;8.052;2022-09-09T01:05:33;99434.41;;;16.31;84.09
31483;BME280;18103;52.246;8.052;2022-09-09T01:08:03;99431.84;;;16.36;83.85
31483;BME280;18103;52.246;8.052;2022-09-09T01:10:51;99431.50;;;16.33;83.74
31483;BME280;18103;52.246;8.052;2022-09-09T01:13:27;99430.19;;;16.35;83.71
31483;BME280;18103;52.246;8.052;2022-09-09T01:15:56;99433.28;;;16.20;84.03
31483;BME280;18103;52.246;8.052;2022-09-09T01:18:27;99428.22;;;16.31;84.08
31483;BME280;18103;52.246;8.052;2022-09-09T01:26:17;99423.13;;;16.41;83.16
31483;BME280;18103;52.246;8.052;2022-09-09T01:28:48;99430.19;;;16.35;83.98
31483;BME280;18103;52.246;8.052;2022-09-09T01:31:40;99429.84;;;16.32;84.21
31483;BME280;18103;52.246;8.052;2022-09-09T01:34:12;99417.00;;;16.34;83.22
31483;BME280;18103;52.246;8.052;2022-09-09T01:39:07;99428.28;;;16.24;84.13
31483;BME280;18103;52.246;8.052;2022-09-09T01:41:33;99421.03;;;16.25;83.70
31483;BME280;18103;52.246;8.052;2022-09-09T01:43:58;99422.59;;;16.32;83.84
31483;BME280;18103;52.246;8.052;2022-09-09T01:46:24;99431.50;;;16.33;83.68
31483;BME280;18103;52.246;8.052;2022-09-09T01:48:51;99426.19;;;16.26;84.07
31483;BME280;18103;52.246;8.052;2022-09-09T01:51:18;99420.78;;;16.26;84.23
31483;BME280;18103;52.246;8.052;2022-09-09T01:53:43;99430.38;;;16.40;83.74
31483;BME280;18103;52.246;8.052;2022-09-09T01:58:56;99429.84;;;16.32;84.16
31483;BME280;18103;52.246;8.052;2022-09-09T02:01:34;99444.56;;;16.29;84.47
31483;BME280;18103;52.246;8.052;2022-09-09T02:04:04;99447.34;;;16.22;85.08
31483;BME280;18103;52.246;8.052;2022-09-09T02:06:35;99450.34;;;16.14;85.55
31483;BME280;18103;52.246;8.052;2022-09-09T02:09:05;99448.59;;;16.20;85.37
31483;BME280;18103;52.246;8.052;2022-09-09T02:11:32;99459.59;;;16.18;85.32
31483;BME280;18103;52.246;8.052;2022-09-09T02:14:01;99459.88;;;16.10;85.97
31483;BME280;18103;52.246;8.052;2022-09-09T02:16:32;99454.19;;;16.18;84.99
31483;BME280;18103;52.246;8.052;2022-09-09T02:19:07;99450.94;;;16.16;85.03
31483;BME280;18103;52.246;8.052;2022-09-09T02:21:34;99461.53;;;16.11;85.10
31483;BME280;18103;52.246;8.052;2022-09-09T02:24:02;99467.00;;;16.05;85.02
31483;BME280;18103;52.246;8.052;2022-09-09T02:26:31;99464.81;;;16.13;84.40
31483;BME280;18103;52.246;8.052;2022-09-09T02:28:59;99468.56;;;16.12;84.60
31483;BME280;18103;52.246;8.052;2022-09-09T02:31:27;99459.31;;;16.08;85.25
31483;BME280;18103;52.246;8.052;2022-09-09T02:33:58;99467.94;;;16.10;85.25
31483;BME280;18103;52.246;8.052;2022-09-09T02:36:27;99461.41;;;16.25;84.52
31483;BME280;18103;52.246;8.052;2022-09-09T02:38:54;99464.66;;;16.27;84.52
31483;BME280;18103;52.246;8.052;2022-09-09T02:41:24;99457.34;;;16.15;84.83
31483;BME280;18103;52.246;8.052;2022-09-09T02:43:51;99459.00;;;16.16;84.94
31483;BME280;18103;52.246;8.052;2022-09-09T02:46:50;99457.66;;;16.26;84.23
31483;BME280;18103;52.246;8.052;2022-09-09T02:49:49;99456.84;;;16.25;84.10
31483;BME280;18103;52.246;8.052;2022-09-09T02:52:26;99453.03;;;16.14;84.63
31483;BME280;18103;52.246;8.052;2022-09-09T02:54:58;99445.59;;;16.10;85.08
31483;BME280;18103;52.246;8.052;2022-09-09T02:57:27;99451.97;;;16.15;84.65
31483;BME280;18103;52.246;8.052;2022-09-09T02:59:53;99456.63;;;16.08;84.68
31483;BME280;18103;52.246;8.052;2022-09-09T03:02:22;99442.25;;;16.14;84.39
31483;BME280;18103;52.246;8.052;2022-09-09T03:04:47;99449.00;;;16.23;83.60
31483;BME280;18103;52.246;8.052;2022-09-09T03:07:19;99455.72;;;16.14;84.50
31483;BME280;18103;52.246;8.052;2022-09-09T03:09:47;99467.28;;;16.15;84.14
31483;BME280;18103;52.246;8.052;2022-09-09T03:12:13;99461.53;;;16.11;84.42
31483;BME280;18103;52.246;8.052;2022-09-09T03:14:38;99467.13;;;16.10;84.63
31483;BME280;18103;52.246;8.052;2022-09-09T03:17:05;99459.44;;;16.13;84.28
31483;BME280;18103;52.246;8.052;2022-09-09T03:19:30;99473.94;;;16.12;84.73
31483;BME280;18103;52.246;8.052;2022-09-09T03:21:57;99472.28;;;16.11;84.62
31483;BME280;18103;52.246;8.052;2022-09-09T03:24:22;99464.94;;;16.00;85.59
31483;BME280;18103;52.246;8.052;2022-09-09T03:26:47;99457.41;;;16.09;84.93
31483;BME280;18103;52.246;8.052;2022-09-09T03:29:13;99470.50;;;16.05;85.43
31483;BME280;18103;52.246;8.052;2022-09-09T03:31:42;99470.78;;;15.97;85.79
31483;BME280;18103;52.246;8.052;2022-09-09T03:34:08;99466.59;;;16.01;86.18
31483;BME280;18103;52.246;8.052;2022-09-09T03:36:34;99470.94;;;16.02;85.57
31483;BME280;18103;52.246;8.052;2022-09-09T03:38:59;99470.94;;;16.02;85.71
31483;BME280;18103;52.246;8.052;2022-09-09T03:41:26;99476.78;;;15.99;86.06
31483;BME280;18103;52.246;8.052;2022-09-09T03:43:51;99470.63;;;15.92;86.94
31483;BME280;18103;52.246;8.052;2022-09-09T03:46:20;99472.16;;;16.06;85.59
31483;BME280;18103;52.246;8.052;2022-09-09T03:48:46;99465.13;;;16.05;86.48
31483;BME280;18103;52.246;8.052;2022-09-09T03:51:12;99461.38;;;16.06;85.76
31483;BME280;18103;52.246;8.052;2022-09-09T03:53:37;99466.78;;;16.06;86.09
31483;BME280;18103;52.246;8.052;2022-09-09T03:56:06;99463.34;;;15.99;86.75
31483;BME280;18103;52.246;8.052;2022-09-09T03:58:36;99459.56;;;16.00;86.80
31483;BME280;18103;52.246;8.052;2022-09-09T04:01:02;99467.50;;;16.13;86.07
31483;BME280;18103;52.246;8.052;2022-09-09T04:03:28;99460.41;;;16.01;87.00
31483;BME280;18103;52.246;8.052;2022-09-09T04:05:56;99463.69;;;16.03;87.02
31483;BME280;18103;52.246;8.052;2022-09-09T04:08:22;99460.91;;;16.09;86.30
31483;BME280;18103;52.246;8.052;2022-09-09T04:10:51;99450.72;;;16.00;87.33
31483;BME280;18103;52.246;8.052;2022-09-09T04:13:17;99453.75;;;16.03;87.24
31483;BME280;18103;52.246;8.052;2022-09-09T04:15:44;99454.66;;;15.97;88.02
31483;BME280;18103;52.246;8.052;2022-09-09T04:18:15;99451.28;;;16.02;87.50
31483;BME280;18103;52.246;8.052;2022-09-09T04:20:40;99453.31;;;16.06;87.07
31483;BME280;18103;52.246;8.052;2022-09-09T04:23:05;99456.34;;;15.92;88.19
31483;BME280;18103;52.246;8.052;2022-09-09T04:25:31;99453.44;;;15.93;87.84
31483;BME280;18103;52.246;8.052;2022-09-09T04:27:57;99456.44;;;16.03;87.52
31483;BME280;18103;52.246;8.052;2022-09-09T04:30:24;99456.88;;;16.00;87.27
31483;BME280;18103;52.246;8.052;2022-09-09T04:32:50;99450.97;;;15.92;88.19
31483;BME280;18103;52.246;8.052;2022-09-09T04:35:15;99458.09;;;16.04;87.53
31483;BME280;18103;52.246;8.052;2022-09-09T04:37:41;99459.88;;;16.10;87.11
31483;BME280;18103;52.246;8.052;2022-09-09T04:40:07;99459.53;;;16.07;87.32
31483;BME280;18103;52.246;8.052;2022-09-09T04:42:38;99464.06;;;16.06;87.15
31483;BME280;18103;52.246;8.052;2022-09-09T04:45:05;99463.91;;;16.01;87.69
31483;BME280;18103;52.246;8.052;2022-09-09T04:47:32;99471.16;;;16.01;87.76
31483;BME280;18103;52.246;8.052;2022-09-09T04:49:57;99477.00;;;15.98;88.26
31483;BME280;18103;52.246;8.052;2022-09-09T04:52:23;99465.84;;;15.94;88.26
31483;BME280;18103;52.246;8.052;2022-09-09T04:54:48;99466.31;;;15.91;88.59
31483;BME280;18103;52.246;8.052;2022-09-09T04:57:13;99466.25;;;15.98;88.30
31483;BME280;18103;52.246;8.052;2022-09-09T04:59:39;99472.38;;;16.05;87.58
31483;BME280;18103;52.246;8.052;2022-09-09T05:02:07;99463.03;;;16.07;87.40
31483;BME280;18103;52.246;8.052;2022-09-09T05:04:32;99468.56;;;16.12;87.11
31483;BME280;18103;52.246;8.052;2022-09-09T05:06:58;99462.88;;;16.02;87.85
31483;BME280;18103;52.246;8.052;2022-09-09T05:09:24;99458.78;;;16.00;88.25
31483;BME280;18103;52.246;8.052;2022-09-09T05:11:49;99457.13;;;15.99;88.26
31483;BME280;18103;52.246;8.052;2022-09-09T05:14:14;99464.06;;;16.06;87.51
31483;BME280;18103;52.246;8.052;2022-09-09T05:16:40;99463.03;;;16.07;87.41
31483;BME280;18103;52.246;8.052;2022-09-09T05:19:06;99469.81;;;16.10;87.72
31483;BME280;18103;52.246;8.052;2022-09-09T05:21:33;99468.25;;;16.02;87.55
31483;BME280;18103;52.246;8.052;2022-09-09T05:24:07;99462.88;;;16.02;88.30
31483;BME280;18103;52.246;8.052;2022-09-09T05:26:33;99472.22;;;16.00;88.28
31483;BME280;18103;52.246;8.052;2022-09-09T05:28:58;99468.41;;;16.07;87.93
31483;BME280;18103;52.246;8.052;2022-09-09T05:31:25;99469.47;;;16.06;88.16
31483;BME280;18103;52.246;8.052;2022-09-09T05:33:53;99467.13;;;16.10;87.75
31483;BME280;18103;52.246;8.052;2022-09-09T05:36:20;99466.47;;;16.14;87.75
31483;BME280;18103;52.246;8.052;2022-09-09T05:38:46;99456.88;;;16.18;87.68
31483;BME280;18103;52.246;8.052;2022-09-09T05:41:13;99460.63;;;16.17;87.61
31483;BME280;18103;52.246;8.052;2022-09-09T05:43:41;99468.03;;;16.22;87.45
31483;BME280;18103;52.246;8.052;2022-09-09T05:46:09;99474.53;;;16.14;87.86
31483;BME280;18103;52.246;8.052;2022-09-09T05:48:37;99486.25;;;16.20;87.82
31483;BME280;18103;52.246;8.052;2022-09-09T05:51:05;99474.06;;;16.17;87.91
31483;BME280;18103;52.246;8.052;2022-09-09T05:53:35;99482.38;;;16.16;88.06
31483;BME280;18103;52.246;8.052;2022-09-09T05:56:05;99485.09;;;16.16;87.90
31483;BME280;18103;52.246;8.052;2022-09-09T05:58:32;99463.91;;;16.19;87.79
31483;BME280;18103;52.246;8.052;2022-09-09T06:01:21;99476.63;;;16.31;87.74
31483;BME280;18103;52.246;8.052;2022-09-09T06:03:48;99474.53;;;16.33;87.67
31483;BME280;18103;52.246;8.052;2022-09-09T06:06:19;99466.31;;;16.28;87.48
31483;BME280;18103;52.246;8.052;2022-09-09T06:08:49;99474.06;;;16.36;87.00
31483;BME280;18103;52.246;8.052;2022-09-09T06:11:16;99471.38;;;16.36;87.33
31483;BME280;18103;52.246;8.052;2022-09-09T06:13:42;99473.84;;;16.37;87.89
31483;BME280;18103;52.246;8.052;2022-09-09T06:16:18;99478.56;;;16.42;87.60
31483;BME280;18103;52.246;8.052;2022-09-09T06:18:44;99478.09;;;16.45;87.21
31483;BME280;18103;52.246;8.052;2022-09-09T06:21:21;99477.53;;;16.43;87.61
31483;BME280;18103;52.246;8.052;2022-09-09T06:23:47;99474.25;;;16.41;87.55
31483;BME280;18103;52.246;8.052;2022-09-09T06:26:18;99476.31;;;16.57;86.69
31483;BME280;18103;52.246;8.052;2022-09-09T06:28:48;99470.31;;;16.55;86.59
31483;BME280;18103;52.246;8.052;2022-09-09T06:31:16;99476.31;;;16.57;86.44
31483;BME280;18103;52.246;8.052;2022-09-09T06:33:42;99474.22;;;16.59;86.02
31483;BME280;18103;52.246;8.052;2022-09-09T06:36:14;99471.28;;;16.60;85.87
31483;BME280;18103;52.246;8.052;2022-09-09T06:38:40;99475.44;;;16.63;86.21
31483;BME280;18103;52.246;8.052;2022-09-09T06:41:10;99469.66;;;16.59;86.31
31483;BME280;18103;52.246;8.052;2022-09-09T06:43:37;99471.25;;;16.67;85.74
31483;BME280;18103;52.246;8.052;2022-09-09T06:46:14;99474.06;;;16.72;85.60
31483;BME280;18103;52.246;8.052;2022-09-09T06:48:40;99472.28;;;16.66;85.92
31483;BME280;18103;52.246;8.052;2022-09-09T06:53:33;99486.94;;;16.70;85.78
31483;BME280;18103;52.246;8.052;2022-09-09T06:56:18;99476.16;;;16.70;85.46
31483;BME280;18103;52.246;8.052;2022-09-09T06:58:44;99482.03;;;16.67;85.94
31483;BME280;18103;52.246;8.052;2022-09-09T07:01:12;99486.72;;;16.72;85.50
31483;BME280;18103;52.246;8.052;2022-09-09T07:03:38;99486.72;;;16.72;85.64
31483;BME280;18103;52.246;8.052;2022-09-09T07:06:05;99489.50;;;16.65;86.15
31483;BME280;18103;52.246;8.052;2022-09-09T07:08:30;99481.53;;;16.70;85.68
31483;BME280;18103;52.246;8.052;2022-09-09T07:11:02;99483.09;;;16.78;85.37
31483;BME280;18103;52.246;8.052;2022-09-09T07:13:29;99490.22;;;16.72;85.87
31483;BME280;18103;52.246;8.052;2022-09-09T07:15:55;99482.75;;;16.74;85.68
31483;BME280;18103;52.246;8.052;2022-09-09T07:18:20;99479.00;;;16.75;85.74
31483;BME280;18103;52.246;8.052;2022-09-09T07:20:55;99482.75;;;16.74;85.95
31483;BME280;18103;52.246;8.052;2022-09-09T07:23:22;99481.22;;;16.78;85.74
31483;BME280;18103;52.246;8.052;2022-09-09T07:25:47;99480.19;;;16.79;85.99
31483;BME280;18103;52.246;8.052;2022-09-09T07:28:13;99484.69;;;16.85;85.76
31483;BME280;18103;52.246;8.052;2022-09-09T07:30:39;99496.63;;;16.89;85.97
31483;BME280;18103;52.246;8.052;2022-09-09T07:33:05;99491.63;;;16.93;85.33
31483;BME280;18103;52.246;8.052;2022-09-09T07:35:31;99484.69;;;16.85;85.63
31483;BME280;18103;52.246;8.052;2022-09-09T07:37:56;99495.56;;;16.90;85.58
31483;BME280;18103;52.246;8.052;2022-09-09T07:40:22;99495.69;;;16.95;85.32
31483;BME280;18103;52.246;8.052;2022-09-09T07:42:47;99496.44;;;17.03;84.83
31483;BME280;18103;52.246;8.052;2022-09-09T07:45:13;99498.22;;;17.09;85.52
31483;BME280;18103;52.246;8.052;2022-09-09T07:47:39;99496.13;;;17.11;85.17
31483;BME280;18103;52.246;8.052;2022-09-09T07:50:08;99503.28;;;17.17;85.18
31483;BME280;18103;52.246;8.052;2022-09-09T07:52:34;99496.69;;;17.13;85.07
31483;BME280;18103;52.246;8.052;2022-09-09T07:54:59;99495.31;;;17.22;84.25
31483;BME280;18103;52.246;8.052;2022-09-09T07:57:27;99499.81;;;17.28;84.33
31483;BME280;18103;52.246;8.052;2022-09-09T07:59:53;99499.34;;;17.31;84.29
31483;BME280;18103;52.246;8.052;2022-09-09T08:02:18;99508.72;;;17.40;84.19
31483;BME280;18103;52.246;8.052;2022-09-09T08:04:45;99504.53;;;17.44;84.15
31483;BME280;18103;52.246;8.052;2022-09-09T08:07:11;99514.81;;;17.47;84.01
31483;BME280;18103;52.246;8.052;2022-09-09T08:09:36;99512.13;;;17.47;84.19
31483;BME280;18103;52.246;8.052;2022-09-09T08:12:02;99514.25;;;17.57;84.06
31483;BME280;18103;52.246;8.052;2022-09-09T08:14:27;99522.59;;;17.55;83.25
31483;BME280;18103;52.246;8.052;2022-09-09T08:16:53;99509.69;;;17.57;83.21
31483;BME280;18103;52.246;8.052;2022-09-09T08:19:19;99506.78;;;17.59;83.27
31483;BME280;18103;52.246;8.052;2022-09-09T08:21:47;99520.78;;;17.67;83.11
31483;BME280;18103;52.246;8.052;2022-09-09T08:24:14;99507.44;;;17.73;82.67
31483;BME280;18103;52.246;8.052;2022-09-09T08:26:42;99514.81;;;17.77;82.52
31483;BME280;18103;52.246;8.052;2022-09-09T08:29:09;99515.63;;;17.78;82.64
31483;BME280;18103;52.246;8.052;2022-09-09T08:31:44;99517.97;;;17.86;81.61
31483;BME280;18103;52.246;8.052;2022-09-09T08:34:10;99520.19;;;17.77;82.65
31483;BME280;18103;52.246;8.052;2022-09-09T08:36:38;99515.03;;;17.76;81.72
31483;BME280;18103;52.246;8.052;2022-09-09T08:39:06;99519.03;;;17.85;81.58
31483;BME280;18103;52.246;8.052;2022-09-09T08:50:19;99516.22;;;18.15;81.22
31483;BME280;18103;52.246;8.052;2022-09-09T08:55:47;99521.41;;;18.16;79.45
31483;BME280;18103;52.246;8.052;2022-09-09T08:58:21;99516.56;;;18.18;80.15
31483;BME280;18103;52.246;8.052;2022-09-09T09:04:03;99518.75;;;18.56;78.12
31483;BME280;18103;52.246;8.052;2022-09-09T09:09:33;99523.63;;;18.82;77.77
31483;BME280;18103;52.246;8.052;2022-09-09T09:12:15;99523.50;;;18.89;77.90
31483;BME280;18103;52.246;8.052;2022-09-09T09:14:43;99536.81;;;19.07;77.57
31483;BME280;18103;52.246;8.052;2022-09-09T09:17:12;99532.78;;;18.93;77.19
31483;BME280;18103;52.246;8.052;2022-09-09T09:19:40;99534.91;;;18.79;77.36
31483;BME280;18103;52.246;8.052;2022-09-09T09:27:15;99534.97;;;18.96;75.84
31483;BME280;18103;52.246;8.052;2022-09-09T09:29:42;99527.03;;;18.78;76.91
31483;BME280;18103;52.246;8.052;2022-09-09T09:32:14;99520.88;;;18.94;76.58
31483;BME280;18103;52.246;8.052;2022-09-09T09:34:41;99519.94;;;19.00;76.38
31483;BME280;18103;52.246;8.052;2022-09-09T09:37:16;99522.53;;;18.95;76.52
31483;BME280;18103;52.246;8.052;2022-09-09T09:39:45;99516.56;;;18.93;76.49
31483;BME280;18103;52.246;8.052;2022-09-09T09:42:12;99523.81;;;19.21;75.93
31483;BME280;18103;52.246;8.052;2022-09-09T09:44:39;99524.94;;;19.37;74.39
31483;BME280;18103;52.246;8.052;2022-09-09T09:49:37;99521.75;;;19.11;74.33
31483;BME280;18103;52.246;8.052;2022-09-09T09:52:04;99529.97;;;19.16;74.27
31483;BME280;18103;52.246;8.052;2022-09-09T09:54:38;99513.94;;;19.27;73.51
31483;BME280;18103;52.246;8.052;2022-09-09T09:57:11;99516.88;;;19.53;73.42
31483;BME280;18103;52.246;8.052;2022-09-09T09:59:38;99520.06;;;19.67;73.08
31483;BME280;18103;52.246;8.052;2022-09-09T10:02:31;99509.72;;;19.81;72.01
31483;BME280;18103;52.246;8.052;2022-09-09T10:05:16;99512.50;;;20.03;72.12
31483;BME280;18103;52.246;8.052;2022-09-09T10:07:42;99509.75;;;19.98;70.45
31483;BME280;18103;52.246;8.052;2022-09-09T10:10:15;99508.22;;;20.07;68.35
31483;BME280;18103;52.246;8.052;2022-09-09T10:13:03;99514.41;;;20.24;68.66
31483;BME280;18103;52.246;8.052;2022-09-09T10:36:45;99514.03;;;20.32;68.59
31483;BME280;18103;52.246;8.052;2022-09-09T10:42:06;99516.38;;;20.45;67.45
31483;BME280;18103;52.246;8.052;2022-09-09T10:47:19;99508.69;;;20.81;67.03
31483;BME280;18103;52.246;8.052;2022-09-09T10:52:44;99502.38;;;20.97;64.15
31483;BME280;18103;52.246;8.052;2022-09-09T10:55:16;99510.66;;;21.12;64.20
31483;BME280;18103;52.246;8.052;2022-09-09T11:00:18;99514.25;;;20.69;62.49
31483;BME280;18103;52.246;8.052;2022-09-09T11:02:47;99513.56;;;20.57;62.58
31483;BME280;18103;52.246;8.052;2022-09-09T11:05:35;99509.91;;;20.46;63.46
31483;BME280;18103;52.246;8.052;2022-09-09T11:15:56;99504.13;;;21.08;65.14
31483;BME280;18103;52.246;8.052;2022-09-09T11:18:27;99489.28;;;21.16;61.56
31483;BME280;18103;52.246;8.052;2022-09-09T11:21:00;99492.63;;;21.50;60.46
31483;BME280;18103;52.246;8.052;2022-09-09T11:26:07;99486.41;;;21.54;58.41
31483;BME280;18103;52.246;8.052;2022-09-09T11:32:04;99494.53;;;21.86;58.96
31483;BME280;18103;52.246;8.052;2022-09-09T11:34:47;99503.59;;;21.65;59.26
31483;BME280;18103;52.246;8.052;2022-09-09T11:37:47;99512.88;;;21.69;59.04
31483;BME280;18103;52.246;8.052;2022-09-09T11:40:27;99504.31;;;21.55;59.04
31483;BME280;18103;52.246;8.052;2022-09-09T11:46:02;99501.50;;;21.45;59.64
31483;BME280;18103;52.246;8.052;2022-09-09T11:48:32;99512.13;;;21.46;59.09
31483;BME280;18103;52.246;8.052;2022-09-09T11:51:09;99509.31;;;21.36;58.71
31483;BME280;18103;52.246;8.052;2022-09-09T11:53:57;99515.72;;;21.25;59.42
31483;BME280;18103;52.246;8.052;2022-09-09T11:56:28;99525.44;;;21.21;59.87
31483;BME280;18103;52.246;8.052;2022-09-09T11:59:06;99531.50;;;20.85;61.73
31483;BME280;18103;52.246;8.052;2022-09-09T12:01:41;99539.88;;;20.61;63.46
31483;BME280;18103;52.246;8.052;2022-09-09T12:04:33;99528.91;;;20.51;65.78
31483;BME280;18103;52.246;8.052;2022-09-09T12:09:59;99521.81;;;20.45;69.63
31483;BME280;18103;52.246;8.052;2022-09-09T12:12:37;99512.66;;;20.51;68.12
31483;BME280;18103;52.246;8.052;2022-09-09T12:17:45;99504.50;;;20.95;70.12
31483;BME280;18103;52.246;8.052;2022-09-09T12:20:15;99506.72;;;20.98;70.08
31483;BME280;18103;52.246;8.052;2022-09-09T12:28:15;99505.13;;;21.02;69.28
31483;BME280;18103;52.246;8.052;2022-09-09T12:30:50;99507.19;;;20.90;68.25
31483;BME280;18103;52.246;8.052;2022-09-09T12:33:19;99496.50;;;21.05;68.63
31483;BME280;18103;52.246;8.052;2022-09-09T12:35:50;99496.75;;;21.25;68.39
31483;BME280;18103;52.246;8.052;2022-09-09T12:38:24;99492.25;;;21.36;69.55
31483;BME280;18103;52.246;8.052;2022-09-09T12:40:58;99490.06;;;21.38;67.87
31483;BME280;18103;52.246;8.052;2022-09-09T12:43:25;99492.66;;;21.55;68.32
31483;BME280;18103;52.246;8.052;2022-09-09T12:46:08;99490.59;;;21.67;67.40
31483;BME280;18103;52.246;8.052;2022-09-09T12:48:40;99486.25;;;21.71;63.25
31483;BME280;18103;52.246;8.052;2022-09-09T12:51:24;99477.13;;;21.82;63.47
31483;BME280;18103;52.246;8.052;2022-09-09T12:53:51;99482.56;;;21.82;63.11
31483;BME280;18103;52.246;8.052;2022-09-09T12:56:22;99482.03;;;21.85;62.42
31483;BME280;18103;52.246;8.052;2022-09-09T12:58:50;99473.66;;;21.87;62.74
31483;BME280;18103;52.246;8.052;2022-09-09T13:01:28;99483.16;;;21.89;62.70
31483;BME280;18103;52.246;8.052;2022-09-09T13:03:55;99475.16;;;22.09;62.04
31483;BME280;18103;52.246;8.052;2022-09-09T13:06:31;99477.47;;;22.33;62.41
31483;BME280;18103;52.246;8.052;2022-09-09T13:08:58;99479.16;;;22.44;60.92
31483;BME280;18103;52.246;8.052;2022-09-09T13:11:40;99476.97;;;22.41;59.36
31483;BME280;18103;52.246;8.052;2022-09-09T13:14:17;99475.25;;;22.25;58.91
31483;BME280;18103;52.246;8.052;2022-09-09T13:16:58;99471.50;;;22.36;58.66
31483;BME280;18103;52.246;8.052;2022-09-09T13:19:23;99471.59;;;22.56;58.56
31483;BME280;18103;52.246;8.052;2022-09-09T13:21:53;99471.09;;;22.69;58.42
31483;BME280;18103;52.246;8.052;2022-09-09T13:26:59;99469.47;;;22.68;55.12
31483;BME280;18103;52.246;8.052;2022-09-09T13:29:27;99458.56;;;22.58;54.32
31483;BME280;18103;52.246;8.052;2022-09-09T13:32:35;99460.22;;;22.69;55.31
31483;BME280;18103;52.246;8.052;2022-09-09T13:34:50;99459.78;;;22.82;54.55
31483;BME280;18103;52.246;8.052;2022-09-09T13:37:25;99457.06;;;22.87;54.26
31483;BME280;18103;52.246;8.052;2022-09-09T13:39:53;99454.28;;;22.72;53.38
31483;BME280;18103;52.246;8.052;2022-09-09T13:42:25;99453.78;;;22.85;54.28
31483;BME280;18103;52.246;8.052;2022-09-09T13:44:51;99459.25;;;22.95;55.02
31483;BME280;18103;52.246;8.052;2022-09-09T13:47:19;99452.72;;;23.02;54.32
31483;BME280;18103;52.246;8.052;2022-09-09T13:49:48;99464.41;;;23.02;54.29
31483;BME280;18103;52.246;8.052;2022-09-09T13:52:18;99458.44;;;23.10;54.38
31483;BME280;18103;52.246;8.052;2022-09-09T13:54:50;99451.34;;;22.94;53.55
31483;BME280;18103;52.246;8.052;2022-09-09T13:57:23;99451.16;;;23.26;54.50
31483;BME280;18103;52.246;8.052;2022-09-09T13:59:51;99453.84;;;23.36;54.00
31483;BME280;18103;52.246;8.052;2022-09-09T14:02:16;99450.34;;;23.51;52.75
31483;BME280;18103;52.246;8.052;2022-09-09T14:04:42;99451.44;;;23.50;50.82
31483;BME280;18103;52.246;8.052;2022-09-09T14:07:15;99456.06;;;23.54;50.33
31483;BME280;18103;52.246;8.052;2022-09-09T14:09:41;99453.88;;;23.56;51.59
31483;BME280;18103;52.246;8.052;2022-09-09T14:12:13;99452.78;;;23.32;50.59
31483;BME280;18103;52.246;8.052;2022-09-09T14:14:40;99451.16;;;23.26;51.28
31483;BME280;18103;52.246;8.052;2022-09-09T14:17:07;99456.56;;;23.36;51.50
31483;BME280;18103;52.246;8.052;2022-09-09T14:19:33;99465.75;;;22.89;50.72
31483;BME280;18103;52.246;8.052;2022-09-09T14:21:58;99469.66;;;22.51;50.63
31483;BME280;18103;52.246;8.052;2022-09-09T14:24:23;99466.31;;;22.29;51.06
31483;BME280;18103;52.246;8.052;2022-09-09T14:26:50;99474.16;;;22.26;51.34
31483;BME280;18103;52.246;8.052;2022-09-09T14:29:15;99479.00;;;22.13;51.96
31483;BME280;18103;52.246;8.052;2022-09-09T14:31:41;99511.69;;;21.60;57.95
31483;BME280;18103;52.246;8.052;2022-09-09T14:34:06;99520.47;;;20.91;66.62
31483;BME280;18103;52.246;8.052;2022-09-09T14:36:32;99535.63;;;20.65;69.65
31483;BME280;18103;52.246;8.052;2022-09-09T14:38:58;99525.34;;;20.29;71.59
31483;BME280;18103;52.246;8.052;2022-09-09T14:41:24;99527.97;;;20.24;73.48
31483;BME280;18103;52.246;8.052;2022-09-09T14:43:50;99516.75;;;19.98;76.62
31483;BME280;18103;52.246;8.052;2022-09-09T14:46:17;99512.03;;;20.06;76.03
31483;BME280;18103;52.246;8.052;2022-09-09T14:48:44;99500.03;;;20.02;76.24
31483;BME280;18103;52.246;8.052;2022-09-09T14:51:21;99501.19;;;19.72;78.54
31483;BME280;18103;52.246;8.052;2022-09-09T14:53:54;99499.91;;;19.58;80.64
31483;BME280;18103;52.246;8.052;2022-09-09T14:56:22;99496.78;;;19.66;81.52
31483;BME280;18103;52.246;8.052;2022-09-09T14:58:48;99496.78;;;19.66;81.05
31483;BME280;18103;52.246;8.052;2022-09-09T15:01:17;99491.38;;;19.49;81.33
31483;BME280;18103;52.246;8.052;2022-09-09T15:03:49;99493.25;;;19.66;82.01
31483;BME280;18103;52.246;8.052;2022-09-09T15:06:15;99503.34;;;19.70;83.04
31483;BME280;18103;52.246;8.052;2022-09-09T15:08:42;99506.47;;;19.79;81.34
31483;BME280;18103;52.246;8.052;2022-09-09T15:11:09;99500.47;;;19.93;83.37
31483;BME280;18103;52.246;8.052;2022-09-09T15:13:39;99505.94;;;19.98;82.08
31483;BME280;18103;52.246;8.052;2022-09-09T15:16:06;99504.06;;;19.99;82.23
31483;BME280;18103;52.246;8.052;2022-09-09T15:18:32;99503.66;;;19.90;81.52